Terminal Aerodrome Forecast
Issued by NWS

Home | Current Version | Previous Version | Text Only | Print | Product List | Glossary Off
Versions: 1 2 3 4 5 6 7 8 9 10 11 12 13 14 15 16 17 18 19 20 21 22 23 24

000
FTUS43 KABR 290600 AAA
TAFMBG
TAF AMD
KMBG 290629Z 2906/3006 31015G25KT P6SM BKN090
     FM290900 33032G44KT P6SM -SHRA BKN050
     FM291300 32022G31KT P6SM SKC
     FM292100 32014KT P6SM SKC
     FM300100 VRB05KT P6SM SKC=

USA.gov is the U.S. government's official web portal to all federal, state and local government web resources and services.